Time;durP1;ratioP1;P1;durP2;ratioP2;P2;SDS_P1;SDS_P2;PMS_P1;PMS_P2;Temp;Humidity;BMP_temperature;BMP_pressure;BME280_temperature;BME280_humidity;BME280_pressure;Samples;Min_cycle;Max_cycle;Signal;HPM_P1;HPM_P2
2023/10/01 00:02:05;;;;;;;;;;;;;;;13.58;67.73;98989.34;5025140;28;21697;-63
2023/10/01 00:04:54;;;;;;;;;;;;;;;13.53;67.69;98983.16;5015364;28;19976;-63
2023/10/01 00:07:43;;;;;;;;;;;;;;;13.52;67.73;98987.81;5027097;28;19932;-64
2023/10/01 00:10:31;;;;;;;;;;;;;;;13.53;67.50;98985.88;5021933;28;20019;-66
2023/10/01 00:13:20;;;;;;;;;;;;;;;13.54;67.38;98980.13;5026036;28;20030;-63
2023/10/01 00:16:08;;;;;;;;;;;;;;;13.46;67.45;98986.28;5023700;28;19933;-64
2023/10/01 00:18:56;;;;;;;;;;;;;;;13.48;67.53;98984.09;5025035;28;19990;-63
2023/10/01 00:21:46;;;;;;;;;;;;;;;13.50;67.48;98976.38;5027353;28;19926;-63
2023/10/01 00:24:34;;;;;;;;;;;;;;;13.41;67.45;98980.94;5023300;28;20020;-63
2023/10/01 00:27:23;;;;;;;;;;;;;;;13.40;67.54;98978.50;5021026;28;20362;-63
2023/10/01 00:30:13;;;;;;;;;;;;;;;13.36;67.75;98972.84;5012554;28;19925;-63
2023/10/01 00:33:01;;;;;;;;;;;;;;;13.36;67.71;98970.94;5026186;28;19925;-63
2023/10/01 00:35:50;;;;;;;;;;;;;;;13.32;67.65;98974.59;5009772;28;19925;-64
2023/10/01 00:38:39;;;;;;;;;;;;;;;13.34;67.45;98972.34;5022158;28;19980;-63
2023/10/01 00:41:28;;;;;;;;;;;;;;;13.30;67.62;98971.34;5024203;28;19929;-63
2023/10/01 00:44:17;;;;;;;;;;;;;;;13.23;67.73;98968.22;5000887;28;19925;-63
2023/10/01 00:47:07;;;;;;;;;;;;;;;13.28;67.61;98970.84;5026374;28;19933;-63
2023/10/01 00:49:56;;;;;;;;;;;;;;;13.20;67.58;98963.31;5026818;28;20294;-63
2023/10/01 00:52:47;;;;;;;;;;;;;;;13.21;67.57;98962.19;5017120;28;19929;-63
2023/10/01 00:55:36;;;;;;;;;;;;;;;13.19;67.49;98967.16;5022493;28;20294;-63
2023/10/01 00:58:24;;;;;;;;;;;;;;;13.14;67.46;98964.53;5023116;28;19929;-63
2023/10/01 01:01:13;;;;;;;;;;;;;;;13.13;67.53;98960.19;5007488;28;20331;-63
2023/10/01 01:04:08;;;;;;;;;;;;;;;13.05;67.76;98967.97;5024853;28;19925;-63
2023/10/01 01:07:00;;;;;;;;;;;;;;;13.08;67.81;98970.06;5026254;28;19925;-64
2023/10/01 01:09:50;;;;;;;;;;;;;;;13.00;68.00;98956.34;5025667;28;19930;-63
2023/10/01 01:12:41;;;;;;;;;;;;;;;13.00;68.34;98959.88;5009191;28;20010;-63
2023/10/01 01:15:33;;;;;;;;;;;;;;;13.02;68.25;98959.56;5025434;28;19932;-63
2023/10/01 01:18:22;;;;;;;;;;;;;;;13.03;68.21;98955.72;5013823;28;19971;-63
2023/10/01 01:21:13;;;;;;;;;;;;;;;12.88;68.62;98956.81;5028854;28;19929;-62
2023/10/01 01:24:03;;;;;;;;;;;;;;;12.87;68.47;98957.13;5025784;28;19925;-62
2023/10/01 01:26:52;;;;;;;;;;;;;;;12.82;68.84;98936.22;5031714;28;20375;-63
2023/10/01 01:29:44;;;;;;;;;;;;;;;12.76;68.83;98942.88;5031304;28;19932;-62
2023/10/01 01:32:32;;;;;;;;;;;;;;;12.79;68.63;98945.00;5030916;28;20054;-62
2023/10/01 01:35:27;;;;;;;;;;;;;;;12.71;68.67;98943.75;5030972;28;20031;-63
2023/10/01 01:38:20;;;;;;;;;;;;;;;12.65;68.59;98958.59;5022780;28;19929;-62
2023/10/01 01:41:12;;;;;;;;;;;;;;;12.55;68.93;98951.38;5016224;28;19933;-61
2023/10/01 01:44:00;;;;;;;;;;;;;;;12.57;68.86;98951.94;5027600;28;19925;-62
2023/10/01 01:46:48;;;;;;;;;;;;;;;12.59;68.62;98954.34;5015337;28;19935;-62
2023/10/01 01:49:42;;;;;;;;;;;;;;;12.63;68.37;98949.09;5011824;28;19996;-62
2023/10/01 01:52:30;;;;;;;;;;;;;;;12.64;68.48;98953.44;5026920;28;20110;-62
2023/10/01 01:55:26;;;;;;;;;;;;;;;12.68;68.35;98957.19;5008431;28;19932;-62
2023/10/01 01:58:23;;;;;;;;;;;;;;;12.64;68.10;98961.63;5026757;28;20489;-62
2023/10/01 02:01:23;;;;;;;;;;;;;;;12.64;68.13;98964.34;5014691;28;19972;-62
2023/10/01 02:04:13;;;;;;;;;;;;;;;12.55;67.86;98959.56;5022760;28;20011;-63
2023/10/01 02:07:03;;;;;;;;;;;;;;;12.49;67.96;98960.78;5024645;28;19986;-63
2023/10/01 02:09:51;;;;;;;;;;;;;;;12.47;68.14;98954.81;5020412;28;19996;-63
2023/10/01 02:12:40;;;;;;;;;;;;;;;12.49;68.10;98958.03;5024500;28;20375;-63
2023/10/01 02:15:29;;;;;;;;;;;;;;;12.52;67.97;98959.38;5001916;28;19925;-63
2023/10/01 02:18:17;;;;;;;;;;;;;;;12.55;67.62;98956.84;5020486;28;20068;-63
2023/10/01 02:21:16;;;;;;;;;;;;;;;12.52;67.45;98953.94;5027322;28;19925;-64
2023/10/01 02:24:05;;;;;;;;;;;;;;;12.47;67.41;98952.09;5024688;28;19925;-63
2023/10/01 02:26:59;;;;;;;;;;;;;;;12.48;67.63;98963.81;5007551;28;19926;-64
2023/10/01 02:30:11;;;;;;;;;;;;;;;12.51;67.59;98964.00;5020359;28;20421;-64
2023/10/01 02:35:59;;;;;;;;;;;;;;;12.48;67.53;98975.50;5025181;28;19925;-64
2023/10/01 02:38:47;;;;;;;;;;;;;;;12.41;67.62;98974.25;5021189;28;19936;-64
2023/10/01 02:41:35;;;;;;;;;;;;;;;12.39;67.85;98976.47;5021608;28;19933;-64
2023/10/01 02:44:25;;;;;;;;;;;;;;;12.44;67.89;98960.03;5011892;28;19925;-64
2023/10/01 02:47:17;;;;;;;;;;;;;;;12.34;67.94;98952.84;5027936;28;19932;-64
2023/10/01 02:50:15;;;;;;;;;;;;;;;12.32;67.91;98944.16;5024744;28;19925;-64
2023/10/01 02:53:03;;;;;;;;;;;;;;;12.32;67.60;98944.97;5025320;28;20412;-64
2023/10/01 02:55:51;;;;;;;;;;;;;;;12.32;67.46;98949.63;5007066;28;19980;-64
2023/10/01 02:58:45;;;;;;;;;;;;;;;12.26;67.78;98948.09;5009958;28;19929;-64
2023/10/01 03:01:32;;;;;;;;;;;;;;;12.25;67.87;98952.72;5011101;28;19933;-65
2023/10/01 03:04:20;;;;;;;;;;;;;;;12.26;67.75;98948.88;5024302;28;19929;-64
2023/10/01 03:07:09;;;;;;;;;;;;;;;12.28;67.37;98940.41;5010923;28;19947;-63
2023/10/01 03:10:11;;;;;;;;;;;;;;;12.19;67.40;98939.44;5021982;28;20555;-63
2023/10/01 03:13:00;;;;;;;;;;;;;;;12.16;67.25;98935.41;5012277;28;19951;-64
2023/10/01 03:16:39;;;;;;;;;;;;;;;12.13;67.55;98927.84;5025601;28;19936;-63
2023/10/01 03:19:03;;;;;;;;;;;;;;;12.15;67.25;98922.09;5025556;28;19925;-63
2023/10/01 03:25:13;;;;;;;;;;;;;;;12.13;67.14;98924.31;4996022;28;19926;-63
2023/10/01 03:28:07;;;;;;;;;;;;;;;12.05;67.49;98918.44;5025400;28;20019;-63
2023/10/01 03:31:06;;;;;;;;;;;;;;;12.05;67.66;98923.88;5024647;28;20008;-63
2023/10/01 03:33:54;;;;;;;;;;;;;;;12.04;67.63;98921.47;5022192;28;19925;-63
2023/10/01 03:36:42;;;;;;;;;;;;;;;12.04;67.69;98919.53;5021408;28;19925;-63
2023/10/01 03:39:36;;;;;;;;;;;;;;;12.02;67.63;98924.47;5028536;28;20048;-62
2023/10/01 03:42:25;;;;;;;;;;;;;;;12.05;67.57;98918.44;5027417;28;19933;-63
2023/10/01 03:45:39;;;;;;;;;;;;;;;11.98;67.66;98912.53;5024830;28;20305;-63
2023/10/01 03:48:42;;;;;;;;;;;;;;;11.92;67.94;98929.25;5023586;28;20323;-63
2023/10/01 03:51:52;;;;;;;;;;;;;;;11.96;67.74;98927.56;5028223;28;19964;-62
2023/10/01 03:55:15;;;;;;;;;;;;;;;11.87;68.23;98926.59;5027661;28;20087;-62
2023/10/01 03:58:18;;;;;;;;;;;;;;;11.88;68.24;98928.22;5028330;28;19959;-62
2023/10/01 04:01:25;;;;;;;;;;;;;;;11.87;68.45;98926.59;5021031;28;20008;-63
2023/10/01 04:04:15;;;;;;;;;;;;;;;11.86;68.32;98925.78;5023475;28;19932;-67
2023/10/01 04:07:09;;;;;;;;;;;;;;;11.84;68.35;98930.72;5028104;28;19940;-62
2023/10/01 04:09:58;;;;;;;;;;;;;;;11.84;68.13;98925.28;5027419;28;19925;-63
2023/10/01 04:12:54;;;;;;;;;;;;;;;11.84;67.90;98927.19;5025955;28;20306;-62
2023/10/01 04:15:46;;;;;;;;;;;;;;;11.85;67.65;98936.97;5023688;28;20298;-63
2023/10/01 04:18:36;;;;;;;;;;;;;;;11.81;67.50;98934.00;5025745;28;20597;-62
2023/10/01 04:21:26;;;;;;;;;;;;;;;11.79;67.28;98923.41;5022720;28;20378;-63
2023/10/01 04:24:13;;;;;;;;;;;;;;;11.76;67.14;98934.06;5023938;28;20018;-63
2023/10/01 04:27:18;;;;;;;;;;;;;;;11.81;67.15;98920.38;5026175;28;19925;-63
2023/10/01 04:30:09;;;;;;;;;;;;;;;11.79;67.03;98919.88;5026795;28;19925;-63
2023/10/01 04:33:16;;;;;;;;;;;;;;;11.80;66.91;98913.31;5027137;28;20409;-63
2023/10/01 04:36:10;;;;;;;;;;;;;;;11.76;66.98;98917.75;5028646;28;19932;-62
2023/10/01 04:39:00;;;;;;;;;;;;;;;11.70;67.12;98917.00;5025529;28;19959;-63
2023/10/01 04:41:58;;;;;;;;;;;;;;;11.67;67.02;98925.78;5025957;28;19951;-63
2023/10/01 04:44:47;;;;;;;;;;;;;;;11.68;67.15;98932.84;5028149;28;19932;-63
2023/10/01 04:47:40;;;;;;;;;;;;;;;11.57;67.24;98927.81;5029001;28;19929;-63
2023/10/01 04:50:31;;;;;;;;;;;;;;;11.61;67.28;98935.13;5028564;28;19940;-63
2023/10/01 04:53:20;;;;;;;;;;;;;;;11.63;67.12;98932.91;5027341;28;19968;-63
2023/10/01 04:56:10;;;;;;;;;;;;;;;11.57;67.37;98928.63;5023623;28;19925;-63
2023/10/01 04:58:58;;;;;;;;;;;;;;;11.61;67.55;98934.28;5021308;28;19925;-63
2023/10/01 05:01:47;;;;;;;;;;;;;;;11.55;67.85;98931.63;5022513;28;20395;-63
2023/10/01 05:04:41;;;;;;;;;;;;;;;11.55;67.80;98928.91;5020161;28;19988;-63
2023/10/01 05:07:30;;;;;;;;;;;;;;;11.58;67.73;98932.16;5027161;28;20024;-64
2023/10/01 05:10:19;;;;;;;;;;;;;;;11.58;68.03;98932.97;5027030;28;20304;-64
2023/10/01 05:13:08;;;;;;;;;;;;;;;11.53;67.90;98931.13;5028637;28;19925;-64
2023/10/01 05:15:56;;;;;;;;;;;;;;;11.50;67.98;98933.59;5023120;28;20401;-64
2023/10/01 05:18:46;;;;;;;;;;;;;;;11.53;67.99;98946.63;5013964;28;19948;-64
2023/10/01 05:21:36;;;;;;;;;;;;;;;11.58;67.89;98941.13;5026456;28;19936;-64
2023/10/01 05:24:34;;;;;;;;;;;;;;;11.60;67.62;98940.81;5014763;28;19925;-65
2023/10/01 05:27:24;;;;;;;;;;;;;;;11.51;67.48;98938.78;5030191;28;20379;-64
2023/10/01 05:33:17;;;;;;;;;;;;;;;11.58;67.77;98946.56;5021793;28;19925;-65
2023/10/01 05:36:05;;;;;;;;;;;;;;;11.61;67.76;98961.50;5025682;28;19925;-64
2023/10/01 05:38:54;;;;;;;;;;;;;;;11.58;67.89;98962.09;5022126;28;20051;-64
2023/10/01 05:41:44;;;;;;;;;;;;;;;11.49;67.95;98964.66;5029284;28;20027;-64
2023/10/01 05:44:34;;;;;;;;;;;;;;;11.54;67.70;98970.84;5024011;28;20387;-64
2023/10/01 05:47:23;;;;;;;;;;;;;;;11.55;67.68;98969.72;5026077;28;19925;-65
2023/10/01 05:50:12;;;;;;;;;;;;;;;11.59;67.71;98974.59;5025946;28;20467;-65
2023/10/01 05:53:01;;;;;;;;;;;;;;;11.59;67.76;98978.13;5027858;28;19929;-65
2023/10/01 05:55:49;;;;;;;;;;;;;;;11.58;67.69;98979.22;5028735;28;19932;-65
2023/10/01 05:58:39;;;;;;;;;;;;;;;11.57;67.69;98982.25;5026137;28;19937;-64
2023/10/01 06:01:28;;;;;;;;;;;;;;;11.58;67.50;98983.88;5028059;28;19972;-65
2023/10/01 06:04:18;;;;;;;;;;;;;;;11.58;67.80;98990.13;5023781;28;20363;-65
2023/10/01 06:07:06;;;;;;;;;;;;;;;11.53;67.44;98988.28;5024970;28;19929;-65
2023/10/01 06:09:54;;;;;;;;;;;;;;;11.57;67.53;98993.16;5027340;28;19929;-65
2023/10/01 06:12:50;;;;;;;;;;;;;;;11.54;67.15;98995.31;5014648;28;19978;-65
2023/10/01 06:15:40;;;;;;;;;;;;;;;11.53;67.48;98996.44;5022809;28;20382;-65
2023/10/01 06:18:29;;;;;;;;;;;;;;;11.57;67.38;98998.59;5021544;28;19936;-65
2023/10/01 06:21:18;;;;;;;;;;;;;;;11.62;67.34;99002.06;5024758;28;19933;-65
2023/10/01 06:24:10;;;;;;;;;;;;;;;11.65;67.45;99006.09;5025002;28;20446;-65
2023/10/01 06:27:01;;;;;;;;;;;;;;;11.63;68.00;99002.84;5019417;28;20295;-64
2023/10/01 06:29:56;;;;;;;;;;;;;;;11.67;67.86;99001.19;5027184;28;19936;-65
2023/10/01 06:32:46;;;;;;;;;;;;;;;11.70;67.69;99004.09;5012401;28;20024;-64
2023/10/01 06:35:35;;;;;;;;;;;;;;;11.77;67.79;99006.47;5024298;28;19983;-64
2023/10/01 06:38:24;;;;;;;;;;;;;;;11.70;67.63;99006.03;5025993;28;20008;-65
2023/10/01 06:41:16;;;;;;;;;;;;;;;11.63;68.10;99003.66;5023291;28;20503;-64
2023/10/01 06:44:04;;;;;;;;;;;;;;;11.57;68.49;99009.47;5023241;28;19928;-64
2023/10/01 06:46:52;;;;;;;;;;;;;;;11.61;68.87;99011.31;5028589;28;19976;-64
2023/10/01 06:49:56;;;;;;;;;;;;;;;11.67;68.75;99007.44;5018137;28;20020;-64
2023/10/01 06:52:45;;;;;;;;;;;;;;;11.76;68.73;99002.94;5028260;28;20310;-64
2023/10/01 06:55:36;;;;;;;;;;;;;;;11.87;68.47;99003.66;5024946;28;19925;-64
2023/10/01 06:58:24;;;;;;;;;;;;;;;11.97;68.54;99006.22;5024046;28;19929;-64
2023/10/01 07:01:34;;;;;;;;;;;;;;;12.01;68.67;99007.28;5027169;28;19926;-64
2023/10/01 07:04:23;;;;;;;;;;;;;;;12.07;68.93;99014.25;5023164;28;19940;-64
2023/10/01 07:07:21;;;;;;;;;;;;;;;12.16;69.14;99011.69;5025801;28;19925;-64
2023/10/01 07:10:10;;;;;;;;;;;;;;;12.30;69.26;99006.31;5029190;28;19937;-65
2023/10/01 07:13:04;;;;;;;;;;;;;;;12.36;69.20;99004.31;5010065;28;19932;-65
2023/10/01 07:15:52;;;;;;;;;;;;;;;12.46;69.24;99010.41;5026647;28;19965;-64
2023/10/01 07:18:43;;;;;;;;;;;;;;;12.56;69.11;99004.78;5020288;28;19933;-64
2023/10/01 07:21:34;;;;;;;;;;;;;;;12.67;69.35;99004.63;5026000;28;19925;-64
2023/10/01 07:24:23;;;;;;;;;;;;;;;12.76;69.38;99011.03;5023233;28;19932;-64
2023/10/01 07:27:12;;;;;;;;;;;;;;;12.82;69.71;99004.38;5028547;28;20552;-64
2023/10/01 07:30:01;;;;;;;;;;;;;;;12.90;69.67;99005.63;5026880;28;19925;-64
2023/10/01 07:32:49;;;;;;;;;;;;;;;12.96;70.13;99012.59;5025008;28;19933;-64
2023/10/01 07:35:40;;;;;;;;;;;;;;;13.01;69.97;99005.13;5025569;28;19925;-64
2023/10/01 07:38:30;;;;;;;;;;;;;;;13.09;70.07;99018.06;5023025;28;19929;-65
2023/10/01 07:41:22;;;;;;;;;;;;;;;13.17;70.00;99013.06;5024304;28;19952;-65
2023/10/01 07:44:11;;;;;;;;;;;;;;;13.26;69.89;99005.78;5026924;28;19932;-64
2023/10/01 07:47:00;;;;;;;;;;;;;;;13.29;69.84;99008.75;5027111;28;19948;-64
2023/10/01 07:49:48;;;;;;;;;;;;;;;13.36;69.90;99011.06;5026917;28;19946;-64
2023/10/01 07:52:36;;;;;;;;;;;;;;;13.45;69.69;99013.91;5026503;28;19936;-65
2023/10/01 07:55:30;;;;;;;;;;;;;;;13.49;69.55;99018.47;5028564;28;19925;-65
2023/10/01 07:58:25;;;;;;;;;;;;;;;13.59;69.49;99026.44;5025338;28;19936;-64
2023/10/01 08:07:42;;;;;;;;;;;;;;;13.81;69.47;99024.91;4999819;28;20582;-64
2023/10/01 08:10:29;;;;;;;;;;;;;;;13.92;69.55;99029.06;5024236;28;19929;-65
2023/10/01 08:13:24;;;;;;;;;;;;;;;14.01;69.26;99032.69;5024712;28;19925;-64
2023/10/01 08:16:13;;;;;;;;;;;;;;;14.08;69.18;99022.13;5027730;28;19943;-64
2023/10/01 08:19:05;;;;;;;;;;;;;;;14.16;69.26;99037.78;5025915;28;19925;-64
2023/10/01 08:21:53;;;;;;;;;;;;;;;14.23;69.10;99028.38;5029560;28;20019;-64
2023/10/01 08:24:45;;;;;;;;;;;;;;;14.29;68.79;99022.50;5024045;28;19925;-64
2023/10/01 08:27:34;;;;;;;;;;;;;;;14.36;68.68;99031.06;5021170;28;20000;-64
2023/10/01 08:30:38;;;;;;;;;;;;;;;14.42;68.38;99031.75;5032650;28;19925;-64
2023/10/01 08:33:32;;;;;;;;;;;;;;;14.47;68.68;99022.63;5028989;28;19929;-64
2023/10/01 08:36:24;;;;;;;;;;;;;;;14.51;68.73;99023.66;5030384;28;19925;-65
2023/10/01 08:39:33;;;;;;;;;;;;;;;14.60;68.31;99021.81;5028104;28;19983;-64
2023/10/01 08:42:28;;;;;;;;;;;;;;;14.61;67.69;99026.97;5030034;28;19956;-65
2023/10/01 08:45:17;;;;;;;;;;;;;;;14.73;67.89;99029.13;5031450;28;20075;-64
2023/10/01 08:48:06;;;;;;;;;;;;;;;14.77;67.85;99012.91;5028505;28;19925;-64
2023/10/01 08:50:55;;;;;;;;;;;;;;;14.88;67.40;99027.94;5031633;28;19933;-65
2023/10/01 08:53:43;;;;;;;;;;;;;;;14.94;67.34;99022.03;5026281;28;20430;-64
2023/10/01 08:56:33;;;;;;;;;;;;;;;15.02;67.09;99027.84;5026723;28;20414;-65
2023/10/01 08:59:29;;;;;;;;;;;;;;;15.07;67.14;99025.78;5029562;28;19970;-64
2023/10/01 09:02:19;;;;;;;;;;;;;;;15.14;67.40;99023.44;5026166;28;20027;-64
2023/10/01 09:05:09;;;;;;;;;;;;;;;15.24;67.18;99027.03;5025889;28;19929;-64
2023/10/01 09:11:10;;;;;;;;;;;;;;;15.39;66.78;99026.59;5028238;28;19925;-64
2023/10/01 09:14:14;;;;;;;;;;;;;;;15.47;66.61;99014.88;5026449;28;19969;-64
2023/10/01 09:17:13;;;;;;;;;;;;;;;15.55;66.62;99013.28;5024716;28;19945;-64
2023/10/01 09:20:06;;;;;;;;;;;;;;;15.60;66.46;99015.88;5024406;28;20391;-64
2023/10/01 09:23:00;;;;;;;;;;;;;;;15.65;66.17;99013.03;5028325;28;19925;-64
2023/10/01 09:25:49;;;;;;;;;;;;;;;15.70;65.80;99015.63;5028082;28;19997;-64
2023/10/01 09:28:37;;;;;;;;;;;;;;;15.79;65.89;99016.47;5026186;28;19944;-64
2023/10/01 09:31:27;;;;;;;;;;;;;;;15.84;65.14;99013.56;5029181;28;20379;-64
2023/10/01 09:34:29;;;;;;;;;;;;;;;15.90;65.10;99008.75;5023818;28;19933;-64
2023/10/01 09:37:33;;;;;;;;;;;;;;;15.99;64.62;99006.84;5029144;28;19925;-63
2023/10/01 09:40:33;;;;;;;;;;;;;;;16.07;64.53;99005.22;5029472;28;19929;-64
2023/10/01 09:43:27;;;;;;;;;;;;;;;16.11;64.64;99004.28;5024381;28;19933;-63
2023/10/01 09:46:15;;;;;;;;;;;;;;;16.22;63.47;99013.00;5013945;28;19925;-63
2023/10/01 09:49:04;;;;;;;;;;;;;;;16.30;63.22;99000.41;5020146;28;19925;-63
2023/10/01 09:51:52;;;;;;;;;;;;;;;16.34;62.23;98998.63;5020674;28;19925;-63
2023/10/01 09:54:43;;;;;;;;;;;;;;;16.39;60.94;99006.69;5026893;28;19932;-63
2023/10/01 09:57:37;;;;;;;;;;;;;;;16.44;60.63;99006.53;5027942;28;19987;-64
2023/10/01 10:03:36;;;;;;;;;;;;;;;16.55;60.50;99005.06;5181173;27;20443;-63
2023/10/01 10:06:25;;;;;;;;;;;;;;;16.63;60.65;99011.69;5152319;27;19980;-63
2023/10/01 10:09:25;;;;;;;;;;;;;;;16.66;59.73;99003.63;5156605;27;19923;-63
2023/10/01 10:12:14;;;;;;;;;;;;;;;16.75;60.19;98998.97;5152108;27;19923;-62
2023/10/01 10:15:02;;;;;;;;;;;;;;;16.79;60.17;98998.31;5155922;27;19931;-62
2023/10/01 10:17:59;;;;;;;;;;;;;;;16.82;59.79;98989.41;5163925;27;20258;-62
2023/10/01 10:20:58;;;;;;;;;;;;;;;16.89;59.62;98992.50;5156624;27;19927;-62
2023/10/01 10:23:53;;;;;;;;;;;;;;;16.93;58.60;98991.47;5158617;27;20332;-61
2023/10/01 10:26:43;;;;;;;;;;;;;;;16.97;58.73;98992.44;5140628;27;19927;-63
2023/10/01 10:29:56;;;;;;;;;;;;;;;17.06;58.86;98992.44;5158751;27;20059;-62
2023/10/01 10:33:03;;;;;;;;;;;;;;;17.10;58.48;98985.16;5161721;27;19927;-60
2023/10/01 10:35:51;;;;;;;;;;;;;;;17.18;57.29;98986.25;5147627;27;19983;-62
2023/10/01 10:38:51;;;;;;;;;;;;;;;17.27;57.75;98984.28;5155803;27;19927;-66
2023/10/01 10:41:40;;;;;;;;;;;;;;;17.24;58.40;98974.75;5161054;27;19927;-63
2023/10/01 10:44:28;;;;;;;;;;;;;;;17.34;58.49;98978.28;5162232;27;19964;-62
2023/10/01 10:47:16;;;;;;;;;;;;;;;17.39;58.91;98976.16;5156379;27;19930;-64
2023/10/01 10:50:11;;;;;;;;;;;;;;;17.40;56.96;98964.03;5162645;27;19927;-63
2023/10/01 10:52:59;;;;;;;;;;;;;;;17.45;56.69;98961.09;5158082;27;19927;-64
2023/10/01 10:55:55;;;;;;;;;;;;;;;17.48;56.61;98965.13;5150560;27;19928;-63
2023/10/01 10:58:46;;;;;;;;;;;;;;;17.52;56.43;98972.38;5160561;27;20003;-64
2023/10/01 11:01:44;;;;;;;;;;;;;;;17.55;56.07;98965.41;5155111;27;19938;-64
2023/10/01 11:04:32;;;;;;;;;;;;;;;17.63;56.06;98971.97;5157495;27;19927;-64
2023/10/01 11:07:20;;;;;;;;;;;;;;;17.68;55.41;98972.59;5151426;27;19930;-63
2023/10/01 11:10:09;;;;;;;;;;;;;;;17.71;55.54;98974.69;5151746;27;19923;-65
2023/10/01 11:12:58;;;;;;;;;;;;;;;17.76;54.97;98969.03;5151363;27;19938;-64
2023/10/01 11:15:46;;;;;;;;;;;;;;;17.79;55.06;98971.13;5132676;27;19928;-64
2023/10/01 11:18:41;;;;;;;;;;;;;;;17.79;54.92;98957.38;5143596;27;19923;-66
2023/10/01 11:21:31;;;;;;;;;;;;;;;17.83;54.28;98959.44;5137833;27;19960;-66
2023/10/01 11:24:21;;;;;;;;;;;;;;;17.86;54.86;98947.81;5144092;27;20030;-65
2023/10/01 11:27:19;;;;;;;;;;;;;;;17.91;53.32;98942.91;5148303;27;19988;-64
2023/10/01 11:30:20;;;;;;;;;;;;;;;17.94;54.00;98936.72;5118508;27;19927;-65
2023/10/01 11:33:28;;;;;;;;;;;;;;;17.98;54.22;98936.88;5142453;27;19930;-65
2023/10/01 11:36:21;;;;;;;;;;;;;;;18.02;54.24;98932.31;5134651;27;19928;-65
2023/10/01 11:39:16;;;;;;;;;;;;;;;18.03;54.16;98933.91;5143429;27;19927;-64
2023/10/01 11:42:19;;;;;;;;;;;;;;;18.07;54.06;98934.88;5148126;27;19929;-64
2023/10/01 11:45:29;;;;;;;;;;;;;;;18.12;53.76;98931.91;5129315;27;20350;-65
2023/10/01 11:48:20;;;;;;;;;;;;;;;18.13;53.95;98925.25;5131618;27;20383;-65
2023/10/01 11:51:08;;;;;;;;;;;;;;;18.16;53.43;98924.56;5145330;27;20335;-64
2023/10/01 11:54:09;;;;;;;;;;;;;;;18.18;54.12;98930.56;5138656;27;20482;-66
2023/10/01 11:57:05;;;;;;;;;;;;;;;18.20;53.04;98917.28;5147986;27;19927;-65
2023/10/01 11:59:55;;;;;;;;;;;;;;;18.22;53.12;98917.75;5122208;27;20383;-65
2023/10/01 12:02:45;;;;;;;;;;;;;;;18.21;54.71;98916.13;5139458;27;20415;-65
2023/10/01 12:05:38;;;;;;;;;;;;;;;18.21;55.08;98913.38;5134986;27;19923;-65
2023/10/01 12:08:35;;;;;;;;;;;;;;;18.23;55.48;98904.81;5133428;27;19932;-64
2023/10/01 12:11:27;;;;;;;;;;;;;;;18.28;52.99;98901.84;5136440;27;20014;-66
2023/10/01 12:14:18;;;;;;;;;;;;;;;18.31;53.43;98896.44;5135915;27;19975;-66
2023/10/01 12:17:07;;;;;;;;;;;;;;;18.35;53.98;98893.03;5140257;27;20031;-66
2023/10/01 12:19:58;;;;;;;;;;;;;;;18.38;54.31;98884.13;5139350;27;19930;-66
2023/10/01 12:23:04;;;;;;;;;;;;;;;18.42;54.57;98885.03;5137558;27;20030;-66
2023/10/01 12:25:57;;;;;;;;;;;;;;;18.44;52.05;98882.75;5147160;27;19934;-66
2023/10/01 12:31:49;;;;;;;;;;;;;;;18.56;50.78;98882.78;5140481;27;19923;-65
2023/10/01 12:34:37;;;;;;;;;;;;;;;18.58;51.36;98878.53;5143286;27;19968;-65
2023/10/01 12:37:36;;;;;;;;;;;;;;;18.64;51.67;98875.56;5132183;27;20450;-66
2023/10/01 12:40:24;;;;;;;;;;;;;;;18.68;51.23;98876.53;5132634;27;19970;-66
2023/10/01 12:46:18;;;;;;;;;;;;;;;18.68;52.68;98877.31;5142273;27;20352;-67
2023/10/01 12:49:14;;;;;;;;;;;;;;;18.72;52.25;98867.25;5147389;27;19927;-65
2023/10/01 12:52:03;;;;;;;;;;;;;;;18.78;52.50;98867.81;5137418;27;19966;-66
2023/10/01 12:54:53;;;;;;;;;;;;;;;18.82;51.79;98868.75;5146079;27;20477;-66
2023/10/01 12:57:43;;;;;;;;;;;;;;;18.82;51.97;98875.06;5142096;27;20440;-66
2023/10/01 13:00:44;;;;;;;;;;;;;;;18.83;50.74;98862.09;5144369;27;19923;-66
2023/10/01 13:03:42;;;;;;;;;;;;;;;18.84;51.60;98863.69;5095515;28;19928;-65
2023/10/01 13:06:30;;;;;;;;;;;;;;;18.88;50.91;98852.81;5092558;28;20014;-66
2023/10/01 13:12:49;;;;;;;;;;;;;;;18.94;51.64;98851.44;5115248;27;20280;-65
2023/10/01 13:15:38;;;;;;;;;;;;;;;18.95;50.02;98840.06;5121144;27;19931;-66
2023/10/01 13:18:29;;;;;;;;;;;;;;;18.97;50.86;98845.25;5111760;27;19923;-66
2023/10/01 13:21:18;;;;;;;;;;;;;;;18.95;50.52;98842.81;5118964;27;19935;-67
2023/10/01 13:24:11;;;;;;;;;;;;;;;19.00;46.33;98836.28;5119522;27;20456;-65
2023/10/01 13:27:10;;;;;;;;;;;;;;;19.04;46.71;98834.47;5120917;27;19923;-64
2023/10/01 13:30:18;;;;;;;;;;;;;;;19.08;48.20;98830.69;5119240;27;19924;-66
2023/10/01 13:33:14;;;;;;;;;;;;;;;19.13;49.40;98831.59;5117461;27;19930;-66
2023/10/01 13:36:12;;;;;;;;;;;;;;;19.16;47.17;98826.19;5121378;27;19924;-66
2023/10/01 13:39:14;;;;;;;;;;;;;;;19.19;45.75;98819.19;5118693;27;20696;-66
2023/10/01 14:09:58;;;;;;;;;;;;;;;19.51;46.99;98798.94;5092209;28;20498;-66
2023/10/01 14:12:56;;;;;;;;;;;;;;;19.47;49.54;98799.97;5105074;28;19975;-66
2023/10/01 14:15:45;;;;;;;;;;;;;;;19.41;45.04;98793.91;5096672;28;19936;-66
2023/10/01 14:18:35;;;;;;;;;;;;;;;19.45;43.79;98785.75;5099991;28;19934;-66
2023/10/01 14:21:27;;;;;;;;;;;;;;;19.46;48.88;98781.84;5106387;28;19924;-66
2023/10/01 14:24:25;;;;;;;;;;;;;;;19.42;44.58;98767.94;5094792;28;19935;-66
2023/10/01 14:27:24;;;;;;;;;;;;;;;19.42;47.01;98778.97;5101191;28;19931;-66
2023/10/01 14:30:24;;;;;;;;;;;;;;;19.42;44.90;98773.44;5087013;28;19978;-67
2023/10/01 14:33:23;;;;;;;;;;;;;;;19.42;45.73;98778.97;5089668;28;19924;-66
2023/10/01 14:36:14;;;;;;;;;;;;;;;19.46;45.99;98768.84;5101515;28;20052;-65
2023/10/01 14:39:05;;;;;;;;;;;;;;;19.48;43.03;98772.06;5099912;28;19935;-66
2023/10/01 14:41:52;;;;;;;;;;;;;;;19.52;43.50;98763.91;5100032;28;19923;-66
2023/10/01 14:44:42;;;;;;;;;;;;;;;19.54;43.71;98765.13;5104395;28;20380;-66
2023/10/01 14:47:32;;;;;;;;;;;;;;;19.64;42.38;98763.88;5103610;28;19931;-66
2023/10/01 14:50:21;;;;;;;;;;;;;;;19.69;44.18;98763.63;5106341;28;19924;-65
2023/10/01 14:53:09;;;;;;;;;;;;;;;19.71;43.19;98758.59;5110512;28;20058;-66
2023/10/01 14:55:58;;;;;;;;;;;;;;;19.73;44.21;98761.78;5099017;28;19967;-66
2023/10/01 14:58:52;;;;;;;;;;;;;;;19.72;45.16;98760.19;5107643;28;20437;-67
2023/10/01 15:01:41;;;;;;;;;;;;;;;19.74;45.72;98757.06;5106022;28;19931;-66
2023/10/01 15:04:35;;;;;;;;;;;;;;;19.74;44.35;98760.63;5122119;27;19923;-67
2023/10/01 15:07:26;;;;;;;;;;;;;;;19.74;44.64;98768.09;5146956;27;20068;-66
2023/10/01 15:10:15;;;;;;;;;;;;;;;19.77;44.60;98761.88;5148594;27;19942;-66
2023/10/01 15:13:03;;;;;;;;;;;;;;;19.77;46.37;98761.88;5138353;27;19923;-66
2023/10/01 15:16:04;;;;;;;;;;;;;;;19.80;44.17;98753.69;5144443;27;19930;-66
2023/10/01 15:19:00;;;;;;;;;;;;;;;19.84;42.59;98759.31;5139790;27;20265;-66
2023/10/01 15:21:50;;;;;;;;;;;;;;;19.88;43.08;98740.91;5143649;27;20519;-69
2023/10/01 15:24:42;;;;;;;;;;;;;;;19.92;41.36;98746.50;5131947;27;19930;-66
2023/10/01 15:27:39;;;;;;;;;;;;;;;19.95;43.84;98746.63;5145790;27;20338;-66
2023/10/01 15:30:34;;;;;;;;;;;;;;;19.95;42.21;98743.88;5134001;27;19924;-66
2023/10/01 15:33:23;;;;;;;;;;;;;;;19.95;42.62;98752.13;5137774;27;20380;-66
2023/10/01 15:36:15;;;;;;;;;;;;;;;19.97;45.55;98749.00;5148830;27;19923;-65
2023/10/01 15:39:14;;;;;;;;;;;;;;;19.99;42.19;98741.22;5142201;27;19923;-66
2023/10/01 15:42:12;;;;;;;;;;;;;;;20.00;41.19;98748.31;5150101;27;20261;-65
2023/10/01 15:45:15;;;;;;;;;;;;;;;19.99;42.82;98746.72;5142260;27;19954;-66
2023/10/01 15:48:07;;;;;;;;;;;;;;;19.96;45.92;98744.66;5143696;27;19975;-66
2023/10/01 15:51:02;;;;;;;;;;;;;;;19.91;45.72;98744.91;5139296;27;20472;-67
2023/10/01 15:53:50;;;;;;;;;;;;;;;19.91;44.17;98747.66;5139714;27;19930;-67
2023/10/01 15:56:38;;;;;;;;;;;;;;;19.89;43.46;98748.03;5140695;27;20009;-68
2023/10/01 15:59:28;;;;;;;;;;;;;;;19.87;45.94;98748.41;5146977;27;20012;-67